Time;durP1;ratioP1;P1;durP2;ratioP2;P2;SDS_P1;SDS_P2;PMS_P1;PMS_P2;Temp;Humidity;BMP_temperature;BMP_pressure;BME280_temperature;BME280_humidity;BME280_pressure;Samples;Min_cycle;Max_cycle;Signal;HPM_P1;HPM_P2
2023/01/21 00:02:36;;;;;;;20.17;11.25;;;10.80;99.90;;;;;;4846589;29;20037;-93
2023/01/21 00:05:59;;;;;;;18.10;10.25;;;10.70;99.90;;;;;;4862709;29;20192;-92
2023/01/21 00:08:39;;;;;;;23.30;11.10;;;10.60;99.90;;;;;;4892457;29;20048;-92
2023/01/21 00:15:03;;;;;;;17.67;9.15;;;10.40;99.90;;;;;;4952916;29;20114;-91
2023/01/21 00:18:27;;;;;;;;;;;;;;;;;;;;;
2023/01/21 00:21:20;;;;;;;23.58;9.15;;;10.20;99.90;;;;;;4865686;29;20065;-92
2023/01/21 00:24:06;;;;;;;19.98;9.00;;;10.10;99.90;;;;;;4865235;29;20137;-91
2023/01/21 00:26:36;;;;;;;17.20;8.68;;;10.10;99.90;;;;;;4864506;29;20037;-92
2023/01/21 00:29:03;;;;;;;16.33;8.63;;;10.10;99.90;;;;;;4864357;29;20037;-93
2023/01/21 00:31:30;;;;;;;16.38;8.80;;;10.10;99.90;;;;;;4865458;29;20060;-91
2023/01/21 00:33:56;;;;;;;17.88;8.70;;;10.20;99.90;;;;;;4857019;29;20060;-92
2023/01/21 09:37:27;;;;;;;15.18;13.43;;;13.80;99.90;;;;;;5592839;23;20043;-92
2023/01/21 09:39:57;;;;;;;14.88;13.57;;;13.90;99.90;;;;;;4976312;28;20503;-90
2023/01/21 09:42:30;;;;;;;14.50;13.40;;;13.70;99.90;;;;;;4941072;28;20039;-89
2023/01/21 09:44:58;;;;;;;14.07;13.27;;;13.80;99.90;;;;;;4936403;28;20110;-90
2023/01/21 09:47:36;;;;;;;14.77;13.50;;;13.80;99.90;;;;;;4932423;28;20027;-91
2023/01/21 09:50:05;;;;;;;14.52;13.38;;;13.60;99.90;;;;;;4947159;29;20552;-90
2023/01/21 09:52:38;;;;;;;14.50;13.50;;;13.50;99.90;;;;;;4937751;28;20113;-89
2023/01/21 09:55:13;;;;;;;14.90;13.57;;;13.50;99.90;;;;;;4937940;28;20395;-92
2023/01/21 09:58:06;;;;;;;15.10;13.80;;;13.70;99.90;;;;;;4939310;29;20033;-91
2023/01/21 10:01:04;;;;;;;14.90;14.00;;;13.70;99.90;;;;;;4949731;28;20391;-90
2023/01/21 10:03:52;;;;;;;15.85;14.68;;;13.60;99.90;;;;;;4946306;28;20058;-91
2023/01/21 10:06:27;;;;;;;15.45;14.15;;;13.80;99.90;;;;;;4947910;28;20042;-91
2023/01/21 10:09:25;;;;;;;15.30;14.25;;;14.00;99.90;;;;;;4946901;28;20027;-76
2023/01/21 10:12:31;;;;;;;15.95;14.40;;;14.20;99.90;;;;;;4948794;28;20484;-93
2023/01/21 10:15:20;;;;;;;16.17;14.50;;;14.20;99.90;;;;;;4947232;28;20062;-92
2023/01/21 10:18:19;;;;;;;14.68;13.32;;;14.30;99.90;;;;;;4945332;28;20030;-91
2023/01/21 10:20:56;;;;;;;15.85;14.35;;;14.40;99.90;;;;;;4866337;29;20124;-92
2023/01/21 10:23:56;;;;;;;15.30;14.15;;;14.40;99.90;;;;;;4866329;29;20133;-93
2023/01/21 10:26:25;;;;;;;15.45;14.10;;;14.40;99.90;;;;;;4850770;29;20140;-93
2023/01/21 10:28:54;;;;;;;15.48;14.40;;;14.30;99.90;;;;;;4865789;29;20032;-93
2023/01/21 10:31:29;;;;;;;16.00;14.60;;;14.30;99.90;;;;;;4850676;29;20049;-91
2023/01/21 10:33:56;;;;;;;16.05;14.50;;;14.30;99.90;;;;;;4851447;29;20120;-92
2023/01/21 10:36:38;;;;;;;16.15;14.60;;;14.30;99.90;;;;;;4870308;29;20037;-91
2023/01/21 10:39:26;;;;;;;15.75;14.60;;;14.20;99.90;;;;;;4903630;29;20556;-92
2023/01/21 10:42:21;;;;;;;15.52;14.50;;;14.30;99.90;;;;;;4887773;29;20394;-91
2023/01/21 10:44:56;;;;;;;15.52;14.60;;;14.40;99.90;;;;;;4887746;29;20044;-92
2023/01/21 10:47:47;;;;;;;14.68;13.80;;;14.40;99.90;;;;;;4902847;29;20036;-91
2023/01/21 10:50:32;;;;;;;15.77;14.68;;;14.40;99.90;;;;;;4903090;29;20083;-91
2023/01/21 10:53:38;;;;;;;16.45;15.25;;;14.30;99.90;;;;;;4887805;29;20074;-93
2023/01/21 10:56:25;;;;;;;16.55;15.20;;;14.20;99.90;;;;;;4888895;29;20024;-91
2023/01/21 10:58:59;;;;;;;16.05;14.95;;;14.10;99.90;;;;;;4942147;29;20485;-94
2023/01/21 11:01:42;;;;;;;16.75;15.40;;;14.20;99.90;;;;;;4940795;29;20062;-90
2023/01/21 11:04:23;;;;;;;16.23;15.25;;;14.20;99.90;;;;;;4941600;29;20041;-92
2023/01/21 11:07:05;;;;;;;16.95;15.85;;;14.30;99.90;;;;;;4941469;29;20118;-93
2023/01/21 11:09:38;;;;;;;16.73;15.80;;;14.10;99.90;;;;;;4941324;29;20078;-92
2023/01/21 11:12:10;;;;;;;17.65;16.55;;;14.10;99.90;;;;;;4921508;29;20115;-92
2023/01/21 11:14:37;;;;;;;17.13;16.00;;;14.00;99.90;;;;;;4906915;29;20043;-93
2023/01/21 11:17:05;;;;;;;16.45;15.43;;;14.20;99.90;;;;;;4905771;29;20119;-92
2023/01/21 11:19:32;;;;;;;16.38;15.27;;;14.20;99.90;;;;;;4905706;29;20100;-91
2023/01/21 11:22:16;;;;;;;16.40;15.35;;;14.00;99.90;;;;;;4905846;29;20067;-92
2023/01/21 11:24:52;;;;;;;;;;;14.00;99.90;;;;;;4906215;29;20512;-91
2023/01/21 11:27:42;;;;;;;16.13;15.13;;;14.00;99.90;;;;;;4921567;29;19915;-92
2023/01/21 11:30:33;;;;;;;16.05;15.13;;;13.80;99.90;;;;;;4905951;29;20031;-92
2023/01/21 11:33:26;;;;;;;16.10;15.05;;;13.70;99.90;;;;;;4905915;29;20120;-92
2023/01/21 11:35:54;;;;;;;15.68;14.88;;;13.80;99.90;;;;;;4905575;29;20510;-92
2023/01/21 11:38:35;;;;;;;16.00;14.85;;;14.00;99.90;;;;;;4905710;29;20047;-91
2023/01/21 11:41:14;;;;;;;16.05;15.05;;;13.80;99.90;;;;;;4914620;29;20062;-92
2023/01/21 11:43:44;;;;;;;17.15;15.82;;;13.80;99.90;;;;;;4938093;29;20046;-92
2023/01/21 11:46:37;;;;;;;16.83;15.65;;;13.70;99.90;;;;;;4941121;29;20032;-93
2023/01/21 11:49:07;;;;;;;17.40;15.90;;;13.70;99.90;;;;;;4940807;29;20107;-91
2023/01/21 11:51:35;;;;;;;23.85;20.42;;;13.80;99.90;;;;;;4941166;29;20028;-94
2023/01/21 11:54:17;;;;;;;19.90;17.85;;;14.00;99.90;;;;;;4940754;29;20086;-92
2023/01/21 11:56:57;;;;;;;17.60;16.30;;;14.00;99.90;;;;;;4940871;29;20117;-92
2023/01/21 11:59:35;;;;;;;16.67;15.45;;;13.80;99.90;;;;;;4940534;29;20035;-94
2023/01/21 12:02:29;;;;;;;16.63;15.20;;;13.80;99.90;;;;;;4940784;29;20039;-92
2023/01/21 12:05:17;;;;;;;16.98;15.40;;;13.60;99.90;;;;;;4940542;29;20039;-91
2023/01/21 12:07:50;;;;;;;16.77;15.32;;;13.60;99.90;;;;;;4940144;29;20035;-93
2023/01/21 12:10:37;;;;;;;16.23;14.98;;;13.60;99.90;;;;;;4940336;29;20023;-91
2023/01/21 12:13:22;;;;;;;16.25;14.80;;;13.70;99.90;;;;;;4939882;29;20031;-94
2023/01/21 12:16:02;;;;;;;22.35;17.25;;;13.60;99.90;;;;;;4940270;29;20027;-91
2023/01/21 12:18:51;;;;;;;16.10;14.68;;;13.60;99.90;;;;;;4939798;29;20059;-93
2023/01/21 12:21:34;;;;;;;15.82;14.75;;;13.50;99.90;;;;;;4940062;29;20034;-93
2023/01/21 12:24:19;;;;;;;16.73;15.18;;;13.50;99.90;;;;;;4940558;29;20117;-91
2023/01/21 12:27:02;;;;;;;16.20;14.80;;;13.50;99.90;;;;;;4940154;29;20031;-91
2023/01/21 12:30:06;;;;;;;17.30;15.75;;;13.50;99.90;;;;;;4940118;29;20067;-91
2023/01/21 12:32:42;;;;;;;15.80;14.52;;;13.40;99.90;;;;;;4939865;29;20062;-91
2023/01/21 12:35:40;;;;;;;16.65;15.07;;;13.40;99.90;;;;;;4940203;29;20053;-91
2023/01/21 12:38:13;;;;;;;18.85;17.23;;;13.50;99.90;;;;;;4897874;29;20150;-89
2023/01/21 12:40:50;;;;;;;16.75;15.32;;;13.50;99.90;;;;;;4897962;29;20127;-91
2023/01/21 12:43:26;;;;;;;16.73;15.18;;;13.40;99.90;;;;;;4898123;29;20614;-91
2023/01/21 12:46:01;;;;;;;16.67;15.10;;;13.30;99.90;;;;;;4897776;29;20131;-91
2023/01/21 12:48:55;;;;;;;16.58;15.00;;;13.30;99.90;;;;;;4898499;29;20514;-92
2023/01/21 12:51:46;;;;;;;17.13;15.57;;;13.30;99.90;;;;;;4898586;29;20187;-90
2023/01/21 12:54:50;;;;;;;17.08;15.73;;;13.30;99.90;;;;;;4883525;29;20088;-91
2023/01/21 12:57:40;;;;;;;17.58;15.98;;;13.30;99.90;;;;;;4885814;29;20118;-92
2023/01/21 13:00:37;;;;;;;18.33;16.50;;;13.20;99.90;;;;;;4900968;29;20569;-91
2023/01/21 13:03:34;;;;;;;17.52;15.70;;;13.30;99.90;;;;;;4885067;29;20035;-91
2023/01/21 13:06:18;;;;;;;16.85;15.32;;;13.30;99.90;;;;;;4885544;29;20411;-91
2023/01/21 13:08:56;;;;;;;16.73;15.20;;;13.20;99.90;;;;;;4885518;29;20087;-90
2023/01/21 13:11:41;;;;;;;23.42;17.92;;;13.30;99.90;;;;;;4900772;29;20041;-90
2023/01/21 13:14:33;;;;;;;20.67;17.58;;;13.30;99.90;;;;;;4907555;29;20047;-89
2023/01/21 13:17:21;;;;;;;18.13;16.70;;;13.30;99.90;;;;;;4955391;29;20027;-90
2023/01/21 13:19:51;;;;;;;20.98;16.90;;;13.50;99.90;;;;;;4955439;29;20039;-90
2023/01/21 13:22:34;;;;;;;16.58;15.32;;;13.70;99.90;;;;;;4955594;29;20031;-90
2023/01/21 13:25:13;;;;;;;16.85;15.27;;;13.80;99.90;;;;;;4943215;29;20114;-88
2023/01/21 13:28:00;;;;;;;17.15;15.50;;;13.50;99.90;;;;;;4940853;29;20040;-90
2023/01/21 13:30:58;;;;;;;15.60;14.50;;;13.30;99.90;;;;;;4954613;29;20118;-90
2023/01/21 13:34:02;;;;;;;16.17;14.93;;;13.10;99.90;;;;;;4955003;29;20473;-91
2023/01/21 13:36:47;;;;;;;16.38;14.98;;;12.90;99.90;;;;;;4967997;28;20134;-91
2023/01/21 13:39:58;;;;;;;16.45;14.82;;;12.70;99.90;;;;;;4936031;29;20417;-92
2023/01/21 13:42:39;;;;;;;14.30;13.10;;;12.60;99.90;;;;;;4919849;29;20393;-89
2023/01/21 13:45:28;;;;;;;15.30;13.93;;;12.50;99.90;;;;;;4919866;29;20065;-89
2023/01/21 13:48:37;;;;;;;16.13;14.40;;;12.40;99.90;;;;;;4904278;29;20035;-91
2023/01/21 13:51:31;;;;;;;21.60;13.95;;;12.30;99.90;;;;;;4919827;29;20035;-90
2023/01/21 13:54:30;;;;;;;15.00;13.68;;;12.30;99.90;;;;;;4919704;29;20048;-90
2023/01/21 13:57:36;;;;;;;16.23;14.88;;;12.30;99.90;;;;;;4904738;29;20040;-91
2023/01/21 14:00:11;;;;;;;16.65;14.98;;;12.30;99.90;;;;;;4919706;29;20095;-92
2023/01/21 14:02:43;;;;;;;19.80;17.77;;;12.20;99.90;;;;;;4919663;29;20477;-91
2023/01/21 14:05:10;;;;;;;19.40;16.98;;;12.20;99.90;;;;;;4903917;29;20035;-90
2023/01/21 14:08:17;;;;;;;16.30;15.02;;;12.10;99.90;;;;;;4903941;29;20569;-88
2023/01/21 14:10:52;;;;;;;16.67;15.25;;;12.10;99.90;;;;;;4859920;29;20052;-89
2023/01/21 14:13:55;;;;;;;16.38;14.73;;;12.20;99.90;;;;;;4859802;29;20057;-90
2023/01/21 14:16:44;;;;;;;16.75;15.27;;;12.30;99.90;;;;;;4844338;29;20048;-90
2023/01/21 14:19:52;;;;;;;15.55;14.30;;;12.30;99.90;;;;;;4859959;29;20056;-92
2023/01/21 14:23:00;;;;;;;20.80;14.40;;;12.30;99.90;;;;;;4840487;29;20037;-94
2023/01/21 14:25:48;;;;;;;15.95;14.70;;;12.20;99.90;;;;;;4868729;29;20034;-94
2023/01/21 14:28:47;;;;;;;17.02;15.45;;;12.10;99.90;;;;;;4869014;29;20048;-91
2023/01/21 14:31:39;;;;;;;16.50;14.80;;;12.00;99.90;;;;;;4859812;29;20173;-92
2023/01/21 14:34:42;;;;;;;17.73;16.23;;;11.90;99.90;;;;;;4860383;29;20042;-91
2023/01/21 14:37:36;;;;;;;17.25;16.00;;;11.70;99.90;;;;;;4879498;29;20549;-90
2023/01/21 14:40:17;;;;;;;18.50;16.35;;;11.60;99.90;;;;;;4900010;29;20041;-93
2023/01/21 14:42:48;;;;;;;16.80;15.35;;;11.50;99.90;;;;;;4884654;29;20079;-90
2023/01/21 14:45:24;;;;;;;22.70;16.92;;;11.40;99.90;;;;;;4899864;29;20036;-90
2023/01/21 14:47:56;;;;;;;16.25;15.05;;;11.30;99.90;;;;;;4949062;28;20039;-92
2023/01/21 14:50:52;;;;;;;16.05;14.57;;;11.30;99.90;;;;;;4942154;29;20039;-91
2023/01/21 14:53:24;;;;;;;17.35;15.60;;;11.20;99.90;;;;;;4943429;29;20070;-92
2023/01/21 14:56:24;;;;;;;16.45;14.75;;;11.10;99.90;;;;;;4941966;29;20166;-92
2023/01/21 14:59:37;;;;;;;16.73;15.25;;;11.00;99.90;;;;;;4941791;29;20404;-93
2023/01/21 15:02:28;;;;;;;16.25;14.77;;;10.90;99.90;;;;;;4881421;29;20039;-93
2023/01/21 15:05:29;;;;;;;17.65;16.00;;;10.90;99.90;;;;;;4911111;29;20126;-91
2023/01/21 15:08:14;;;;;;;19.20;16.73;;;10.80;99.90;;;;;;4918676;29;20035;-90
2023/01/21 15:10:42;;;;;;;22.80;17.67;;;10.80;99.90;;;;;;4910861;29;20035;-91
2023/01/21 15:13:30;;;;;;;15.75;14.50;;;10.80;99.90;;;;;;4907347;29;20118;-92
2023/01/21 15:16:48;;;;;;;;;;;;;;;;;;;;;
2023/01/21 15:19:57;;;;;;;16.98;15.15;;;10.90;99.90;;;;;;4941822;29;20116;-92
2023/01/21 15:29:19;;;;;;;17.13;15.30;;;10.90;99.90;;;;;;1645953;23;21198;-88
2023/01/21 15:31:46;;;;;;;19.10;17.15;;;10.80;99.90;;;;;;4944002;28;20122;-91
2023/01/21 15:34:20;;;;;;;20.63;16.08;;;10.80;99.90;;;;;;4945347;28;20064;-91
2023/01/21 15:36:56;;;;;;;18.05;16.23;;;10.70;99.90;;;;;;4941519;29;20086;-91
2023/01/21 15:39:33;;;;;;;20.33;15.02;;;10.60;99.90;;;;;;4941122;29;20089;-91
2023/01/21 15:42:22;;;;;;;20.27;14.25;;;10.50;99.90;;;;;;4956890;29;20035;-93
2023/01/21 15:45:11;;;;;;;15.82;14.13;;;10.50;99.90;;;;;;4925866;29;20081;-92
2023/01/21 15:48:27;;;;;;;14.43;13.02;;;10.40;99.90;;;;;;4956824;28;20035;-93
2023/01/21 15:51:12;;;;;;;15.02;13.38;;;10.30;99.90;;;;;;4884146;29;20037;-93
2023/01/21 15:54:04;;;;;;;21.33;13.77;;;10.30;99.90;;;;;;4883842;29;20036;-92
2023/01/21 15:56:58;;;;;;;63.10;15.00;;;10.30;99.90;;;;;;4899318;29;20127;-90
2023/01/21 22:56:09;;;;;;;24.00;14.05;;;4.70;99.90;;;;;;5412810;23;20054;-90
2023/01/21 22:58:36;;;;;;;21.77;13.73;;;4.80;99.90;;;;;;4957696;29;20046;-91
2023/01/21 23:01:03;;;;;;;28.20;14.75;;;4.80;99.90;;;;;;4941710;29;20031;-91
2023/01/21 23:03:30;;;;;;;31.15;13.63;;;4.90;99.90;;;;;;4957569;29;20023;-89
2023/01/21 23:06:05;;;;;;;25.42;13.55;;;4.90;99.90;;;;;;4948974;29;20038;-90
2023/01/21 23:08:31;;;;;;;38.85;13.05;;;4.90;99.90;;;;;;4957209;28;20043;-89
2023/01/21 23:11:07;;;;;;;23.23;11.80;;;4.80;99.90;;;;;;4957293;28;20086;-89
2023/01/21 23:13:34;;;;;;;22.38;12.43;;;4.90;99.90;;;;;;4957250;28;20039;-91
2023/01/21 23:16:01;;;;;;;19.27;11.13;;;4.80;99.90;;;;;;4957091;28;20027;-90
2023/01/21 23:18:28;;;;;;;17.70;10.68;;;4.80;99.90;;;;;;4957128;28;20035;-90
2023/01/21 23:20:55;;;;;;;19.23;10.15;;;4.80;99.90;;;;;;4957213;28;20058;-89
2023/01/21 23:23:23;;;;;;;14.68;10.15;;;4.70;99.90;;;;;;4957467;28;20047;-89
2023/01/21 23:25:50;;;;;;;14.40;9.00;;;4.70;99.90;;;;;;4957980;28;20041;-90
2023/01/21 23:28:16;;;;;;;17.85;9.30;;;4.70;99.90;;;;;;4956995;29;20027;-89
2023/01/21 23:30:43;;;;;;;13.00;8.85;;;4.70;99.90;;;;;;4957255;29;20540;-89
2023/01/21 23:33:11;;;;;;;15.90;8.50;;;4.70;99.90;;;;;;4956978;29;20055;-88
2023/01/21 23:35:38;;;;;;;13.00;8.60;;;4.80;99.90;;;;;;4956906;29;20122;-89
2023/01/21 23:38:08;;;;;;;16.75;9.25;;;4.80;99.90;;;;;;4956789;29;20114;-88
2023/01/21 23:40:34;;;;;;;19.02;10.07;;;4.80;99.90;;;;;;4956810;29;20035;-90
2023/01/21 23:43:01;;;;;;;15.43;9.73;;;4.80;99.90;;;;;;4956766;28;20485;-88
2023/01/21 23:45:28;;;;;;;17.90;9.95;;;4.70;99.90;;;;;;4956934;29;20083;-88
2023/01/21 23:47:55;;;;;;;16.02;10.27;;;4.70;99.90;;;;;;4956905;29;20091;-88
2023/01/21 23:50:22;;;;;;;17.70;10.63;;;4.70;99.90;;;;;;4957564;28;20024;-90
2023/01/21 23:52:54;;;;;;;15.20;9.77;;;4.70;99.90;;;;;;4956752;28;20455;-88
2023/01/21 23:55:24;;;;;;;16.40;10.68;;;4.70;99.90;;;;;;4955160;29;20400;-87
2023/01/21 23:57:50;;;;;;;21.50;10.23;;;4.70;99.90;;;;;;4940658;29;20035;-87
